Time;durP1;ratioP1;P1;durP2;ratioP2;P2;SDS_P1;SDS_P2;PMS_P1;PMS_P2;Temp;Humidity;BMP_temperature;BMP_pressure;BME280_temperature;BME280_humidity;BME280_pressure;Samples;Min_cycle;Max_cycle;Signal;HPM_P1;HPM_P2
2023/03/25 00:01:01;;;;;;;5.73;2.43;;;;;;;;;;5079644;28;20546;-63
2023/03/25 00:03:29;;;;;;;4.90;2.90;;;;;;;;;;5080686;28;20507;-64
2023/03/25 00:05:56;;;;;;;3.67;2.10;;;;;;;;;;5080771;28;20547;-63
2023/03/25 00:08:23;;;;;;;4.43;3.37;;;;;;;;;;5081352;28;20531;-63
2023/03/25 00:10:51;;;;;;;4.40;2.07;;;;;;;;;;5080178;28;20568;-63
2023/03/25 00:13:18;;;;;;;4.30;2.00;;;;;;;;;;5081103;28;20484;-63
2023/03/25 00:15:45;;;;;;;2.93;1.60;;;;;;;;;;5080807;28;20499;-62
2023/03/25 00:18:13;;;;;;;4.53;1.67;;;;;;;;;;5080886;28;20540;-63
2023/03/25 00:20:39;;;;;;;4.80;1.60;;;;;;;;;;5080377;28;20853;-63
2023/03/25 00:23:06;;;;;;;4.80;1.20;;;;;;;;;;5081221;28;20448;-64
2023/03/25 00:25:32;;;;;;;2.53;1.40;;;;;;;;;;5079906;28;20527;-63
2023/03/25 00:27:59;;;;;;;3.60;1.37;;;;;;;;;;5080279;28;20980;-63
2023/03/25 00:30:25;;;;;;;2.23;1.10;;;;;;;;;;5080050;28;20924;-64
2023/03/25 00:32:52;;;;;;;2.53;1.10;;;;;;;;;;5080749;28;20472;-63
2023/03/25 00:35:20;;;;;;;2.20;1.30;;;;;;;;;;5080336;28;20835;-63
2023/03/25 00:37:56;;;;;;;3.23;1.00;;;;;;;;;;5079985;28;20494;-62
2023/03/25 00:40:22;;;;;;;2.03;1.30;;;;;;;;;;5079563;28;20452;-63
2023/03/25 00:42:49;;;;;;;2.03;1.10;;;;;;;;;;5080122;28;20515;-63
2023/03/25 00:45:15;;;;;;;2.70;0.90;;;;;;;;;;5080437;28;20977;-63
2023/03/25 00:47:42;;;;;;;5.13;1.23;;;;;;;;;;5080610;28;20478;-63
2023/03/25 00:50:09;;;;;;;4.83;1.00;;;;;;;;;;5079527;28;20468;-63
2023/03/25 00:52:37;;;;;;;3.60;1.23;;;;;;;;;;5080687;28;20483;-63
2023/03/25 00:55:03;;;;;;;2.83;1.30;;;;;;;;;;5080402;28;20483;-64
2023/03/25 00:57:30;;;;;;;3.23;1.00;;;;;;;;;;5079524;28;20476;-64
2023/03/25 00:59:56;;;;;;;4.73;1.33;;;;;;;;;;5079311;28;20487;-64
2023/03/25 01:02:23;;;;;;;3.33;1.10;;;;;;;;;;5079326;28;20476;-63
2023/03/25 01:04:49;;;;;;;3.43;1.40;;;;;;;;;;5080177;28;20484;-64
2023/03/25 01:07:16;;;;;;;1.40;1.20;;;;;;;;;;5079387;28;20993;-64
2023/03/25 01:09:45;;;;;;;1.20;1.00;;;;;;;;;;5080423;28;20520;-64
2023/03/25 01:12:11;;;;;;;2.10;1.60;;;;;;;;;;5079501;28;20468;-64
2023/03/25 01:14:38;;;;;;;3.97;1.60;;;;;;;;;;5080954;28;21062;-63
2023/03/25 01:17:04;;;;;;;1.90;1.70;;;;;;;;;;5080364;28;20987;-64
2023/03/25 01:19:31;;;;;;;4.43;1.90;;;;;;;;;;5080810;28;20464;-63
2023/03/25 01:21:57;;;;;;;3.53;2.00;;;;;;;;;;5080171;28;20503;-64
2023/03/25 01:24:26;;;;;;;3.20;1.73;;;;;;;;;;5081392;28;20484;-64
2023/03/25 01:26:54;;;;;;;2.80;1.60;;;;;;;;;;5079524;28;20483;-63
2023/03/25 01:29:21;;;;;;;4.40;2.07;;;;;;;;;;5079889;28;20464;-63
2023/03/25 01:31:47;;;;;;;2.97;2.57;;;;;;;;;;5079520;28;20480;-63
2023/03/25 01:34:14;;;;;;;4.57;2.07;;;;;;;;;;5081078;28;20486;-64
2023/03/25 01:36:45;;;;;;;6.23;1.67;;;;;;;;;;5080222;28;21212;-64
2023/03/25 01:39:15;;;;;;;2.80;2.07;;;;;;;;;;5080765;28;20456;-64
2023/03/25 01:41:42;;;;;;;3.10;1.90;;;;;;;;;;5078887;28;20522;-63
2023/03/25 01:44:10;;;;;;;3.57;1.90;;;;;;;;;;5080273;28;20492;-64
2023/03/25 01:46:38;;;;;;;5.30;2.43;;;;;;;;;;5078644;28;20759;-64
2023/03/25 01:49:07;;;;;;;2.73;2.30;;;;;;;;;;5079978;28;20459;-63
2023/03/25 01:51:35;;;;;;;2.50;2.00;;;;;;;;;;5075381;28;20480;-64
2023/03/25 01:54:02;;;;;;;5.17;2.17;;;;;;;;;;5080172;28;20455;-63
2023/03/25 01:56:31;;;;;;;3.87;2.40;;;;;;;;;;5075254;28;20464;-64
2023/03/25 01:58:58;;;;;;;2.10;1.90;;;;;;;;;;5079489;28;20460;-63
2023/03/25 02:01:26;;;;;;;2.30;1.90;;;;;;;;;;5078035;28;20538;-63
2023/03/25 02:03:53;;;;;;;5.07;2.60;;;;;;;;;;5079986;28;20980;-63
2023/03/25 02:06:24;;;;;;;4.20;2.77;;;;;;;;;;5079727;28;20510;-63
2023/03/25 02:08:51;;;;;;;5.00;2.53;;;;;;;;;;5080032;28;20480;-64
2023/03/25 02:11:17;;;;;;;5.63;2.40;;;;;;;;;;5079312;28;20484;-63
2023/03/25 02:13:44;;;;;;;4.37;2.90;;;;;;;;;;5078769;28;20852;-63
2023/03/25 02:16:20;;;;;;;4.00;2.20;;;;;;;;;;5080156;28;20472;-63
2023/03/25 02:18:51;;;;;;;3.83;3.10;;;;;;;;;;5082902;28;20502;-63
2023/03/25 02:21:52;;;;;;;4.00;2.20;;;;;;;;;;5082663;28;20526;-64
2023/03/25 02:24:36;;;;;;;3.00;2.00;;;;;;;;;;5077267;28;20460;-64
2023/03/25 02:27:25;;;;;;;2.97;2.10;;;;;;;;;;5081480;28;20511;-64
2023/03/25 02:30:01;;;;;;;7.40;2.10;;;;;;;;;;5071048;28;20946;-63
2023/03/25 02:32:37;;;;;;;5.77;1.70;;;;;;;;;;5082208;28;20479;-63
2023/03/25 02:35:18;;;;;;;6.67;2.13;;;;;;;;;;5084204;28;20511;-64
2023/03/25 02:37:57;;;;;;;5.83;2.43;;;;;;;;;;5079522;28;20964;-64
2023/03/25 02:40:26;;;;;;;5.63;2.13;;;;;;;;;;5082276;28;20948;-64
2023/03/25 02:42:55;;;;;;;4.67;1.90;;;;;;;;;;5082030;28;20494;-64
2023/03/25 02:45:23;;;;;;;7.30;2.40;;;;;;;;;;5082657;28;20472;-64
2023/03/25 02:47:53;;;;;;;5.20;2.07;;;;;;;;;;5083362;28;20507;-64
2023/03/25 02:50:22;;;;;;;6.53;2.60;;;;;;;;;;5082220;28;20484;-63
2023/03/25 02:52:50;;;;;;;3.57;1.73;;;;;;;;;;5083477;28;20484;-63
2023/03/25 02:55:20;;;;;;;5.20;1.83;;;;;;;;;;5083275;28;20467;-63
2023/03/25 02:57:49;;;;;;;4.93;1.83;;;;;;;;;;5075821;28;20468;-63
2023/03/25 03:00:17;;;;;;;4.83;2.40;;;;;;;;;;5081869;28;20479;-63
2023/03/25 03:02:45;;;;;;;6.60;2.70;;;;;;;;;;5082948;28;20482;-63
2023/03/25 03:05:24;;;;;;;4.90;1.70;;;;;;;;;;5082538;28;20484;-63
2023/03/25 03:07:53;;;;;;;4.00;2.57;;;;;;;;;;5083146;28;20497;-63
2023/03/25 03:10:22;;;;;;;7.30;2.30;;;;;;;;;;5082085;28;20539;-63
2023/03/25 03:12:56;;;;;;;6.20;2.17;;;;;;;;;;5082562;28;20448;-63
2023/03/25 03:15:27;;;;;;;4.10;2.37;;;;;;;;;;5082227;28;20504;-63
2023/03/25 03:17:59;;;;;;;5.40;2.20;;;;;;;;;;5082798;28;20478;-63
2023/03/25 03:20:33;;;;;;;4.87;2.87;;;;;;;;;;5081745;28;20936;-63
2023/03/25 03:23:04;;;;;;;6.83;3.40;;;;;;;;;;5082609;28;20456;-63
2023/03/25 03:25:34;;;;;;;5.77;2.53;;;;;;;;;;5081527;28;20469;-63
2023/03/25 03:28:04;;;;;;;6.73;2.43;;;;;;;;;;5082286;28;20528;-63
2023/03/25 03:30:32;;;;;;;5.83;2.60;;;;;;;;;;5081244;28;20459;-63
2023/03/25 03:33:02;;;;;;;5.80;3.43;;;;;;;;;;5082737;28;20452;-63
2023/03/25 03:35:30;;;;;;;3.73;2.20;;;;;;;;;;5082201;28;20487;-63
2023/03/25 03:37:57;;;;;;;4.63;2.83;;;;;;;;;;5082751;28;20448;-63
2023/03/25 03:40:25;;;;;;;2.97;2.13;;;;;;;;;;5081055;28;20484;-63
2023/03/25 03:42:55;;;;;;;4.70;2.27;;;;;;;;;;5081705;28;20520;-62
2023/03/25 03:45:23;;;;;;;4.97;2.73;;;;;;;;;;5071934;28;20536;-63
2023/03/25 03:47:53;;;;;;;4.43;2.10;;;;;;;;;;5082012;28;20582;-62
2023/03/25 03:50:20;;;;;;;2.87;2.53;;;;;;;;;;5082118;28;20523;-63
2023/03/25 03:52:50;;;;;;;5.40;3.00;;;;;;;;;;5082062;28;20452;-62
2023/03/25 03:55:20;;;;;;;3.70;2.50;;;;;;;;;;5081881;28;20871;-62
2023/03/25 03:57:49;;;;;;;5.20;3.60;;;;;;;;;;5081237;28;20920;-63
2023/03/25 04:00:18;;;;;;;4.30;3.00;;;;;;;;;;5079996;28;20534;-63
2023/03/25 04:02:48;;;;;;;3.77;2.80;;;;;;;;;;5081547;28;20499;-63
2023/03/25 04:05:16;;;;;;;4.60;2.60;;;;;;;;;;5081403;28;20491;-63
2023/03/25 04:07:44;;;;;;;5.73;3.30;;;;;;;;;;5077555;28;20480;-63
2023/03/25 04:10:13;;;;;;;4.23;2.73;;;;;;;;;;5081294;28;20488;-63
2023/03/25 04:12:43;;;;;;;6.47;2.63;;;;;;;;;;5080949;28;20464;-63
2023/03/25 04:15:10;;;;;;;3.60;2.37;;;;;;;;;;5081818;28;20516;-63
2023/03/25 04:17:38;;;;;;;8.93;2.80;;;;;;;;;;5081868;28;20444;-63
2023/03/25 04:20:07;;;;;;;4.83;2.37;;;;;;;;;;5081748;28;20494;-62
2023/03/25 04:22:36;;;;;;;3.07;2.27;;;;;;;;;;5071634;28;20591;-63
2023/03/25 04:25:03;;;;;;;5.83;2.60;;;;;;;;;;5081814;28;20479;-63
2023/03/25 04:27:31;;;;;;;6.20;2.40;;;;;;;;;;5080436;28;20523;-63
2023/03/25 04:30:00;;;;;;;3.93;2.50;;;;;;;;;;5080789;28;20980;-62
2023/03/25 04:32:26;;;;;;;4.20;2.23;;;;;;;;;;5080755;28;20955;-63
2023/03/25 04:34:56;;;;;;;7.00;2.90;;;;;;;;;;5081322;28;20444;-63
2023/03/25 04:37:24;;;;;;;7.47;2.43;;;;;;;;;;5081235;28;20556;-63
2023/03/25 04:39:50;;;;;;;10.30;3.07;;;;;;;;;;5080677;28;20441;-63
2023/03/25 04:42:17;;;;;;;5.20;2.33;;;;;;;;;;5079605;28;20595;-63
2023/03/25 04:44:44;;;;;;;5.17;2.20;;;;;;;;;;5081352;28;21000;-63
2023/03/25 04:47:13;;;;;;;4.60;2.10;;;;;;;;;;5080962;28;20555;-64
2023/03/25 04:49:41;;;;;;;4.23;1.80;;;;;;;;;;5080558;28;20804;-64
2023/03/25 04:52:09;;;;;;;3.90;2.20;;;;;;;;;;5080150;28;20488;-63
2023/03/25 04:54:37;;;;;;;3.90;1.77;;;;;;;;;;5081753;28;20444;-63
2023/03/25 04:57:03;;;;;;;6.47;2.20;;;;;;;;;;5080323;28;21000;-63
2023/03/25 04:59:36;;;;;;;7.03;2.20;;;;;;;;;;5079995;28;20480;-63
2023/03/25 05:02:04;;;;;;;5.60;2.70;;;;;;;;;;5079423;28;20492;-63
2023/03/25 05:04:40;;;;;;;4.50;2.30;;;;;;;;;;5080114;28;20475;-63
2023/03/25 05:07:07;;;;;;;5.23;2.23;;;;;;;;;;5073347;28;20494;-63
2023/03/25 05:09:35;;;;;;;5.10;2.37;;;;;;;;;;5080423;28;20877;-63
2023/03/25 05:12:01;;;;;;;8.30;2.40;;;;;;;;;;5079194;28;20563;-63
2023/03/25 05:14:27;;;;;;;5.37;2.37;;;;;;;;;;5080705;28;20448;-63
2023/03/25 05:16:56;;;;;;;3.13;2.07;;;;;;;;;;5080438;28;20935;-64
2023/03/25 05:19:26;;;;;;;3.23;2.00;;;;;;;;;;5080926;28;20444;-64
2023/03/25 05:21:55;;;;;;;5.50;2.07;;;;;;;;;;5079229;28;20472;-64
2023/03/25 05:24:25;;;;;;;6.67;2.57;;;;;;;;;;5081190;28;20445;-63
2023/03/25 05:26:53;;;;;;;9.67;2.57;;;;;;;;;;5079954;28;20519;-63
2023/03/25 05:29:20;;;;;;;5.77;2.40;;;;;;;;;;5078845;28;20512;-63
2023/03/25 05:31:47;;;;;;;5.80;2.70;;;;;;;;;;5079845;28;20518;-63
2023/03/25 05:34:15;;;;;;;4.97;2.17;;;;;;;;;;5080627;28;20448;-63
2023/03/25 05:36:42;;;;;;;3.83;2.70;;;;;;;;;;5079414;28;20491;-63
2023/03/25 05:39:09;;;;;;;7.57;3.23;;;;;;;;;;5079482;28;20464;-63
2023/03/25 05:41:38;;;;;;;6.50;3.57;;;;;;;;;;5078629;28;20576;-64
2023/03/25 05:44:06;;;;;;;6.23;3.03;;;;;;;;;;5079093;28;20455;-64
2023/03/25 05:46:33;;;;;;;5.10;3.30;;;;;;;;;;5078744;28;20555;-64
2023/03/25 05:49:00;;;;;;;4.40;2.70;;;;;;;;;;5079136;28;20453;-63
2023/03/25 05:51:27;;;;;;;4.83;2.70;;;;;;;;;;5078553;28;20703;-64
2023/03/25 05:53:54;;;;;;;10.37;3.90;;;;;;;;;;5080008;28;20455;-63
2023/03/25 05:56:22;;;;;;;3.97;2.80;;;;;;;;;;5076605;28;20473;-63
2023/03/25 05:58:49;;;;;;;6.13;2.57;;;;;;;;;;5076586;28;20476;-64
2023/03/25 06:01:18;;;;;;;7.10;3.17;;;;;;;;;;5077507;28;21058;-64
2023/03/25 06:03:45;;;;;;;4.30;2.70;;;;;;;;;;5079673;28;20452;-63
2023/03/25 06:06:17;;;;;;;6.17;2.90;;;;;;;;;;5078715;28;20896;-63
2023/03/25 06:08:45;;;;;;;5.50;2.90;;;;;;;;;;5080543;28;20506;-63
2023/03/25 06:11:12;;;;;;;5.27;3.83;;;;;;;;;;5078584;28;20484;-64
2023/03/25 06:13:39;;;;;;;3.73;3.07;;;;;;;;;;5079748;28;20525;-63
2023/03/25 06:16:08;;;;;;;5.50;3.33;;;;;;;;;;5079688;28;20511;-63
2023/03/25 06:18:36;;;;;;;4.90;2.73;;;;;;;;;;5080000;28;20451;-64
2023/03/25 06:21:02;;;;;;;11.00;2.97;;;;;;;;;;5079035;28;20480;-64
2023/03/25 06:23:29;;;;;;;4.53;2.77;;;;;;;;;;5080252;28;20575;-64
2023/03/25 06:25:57;;;;;;;5.80;2.40;;;;;;;;;;5079288;28;20555;-64
2023/03/25 06:28:23;;;;;;;4.17;3.00;;;;;;;;;;5076984;28;20508;-64
2023/03/25 06:30:50;;;;;;;5.37;3.00;;;;;;;;;;5078083;28;20511;-64
2023/03/25 06:33:18;;;;;;;6.10;2.47;;;;;;;;;;5079704;28;20456;-64
2023/03/25 06:35:48;;;;;;;8.30;2.90;;;;;;;;;;5078950;28;20475;-65
2023/03/25 06:38:15;;;;;;;6.47;2.77;;;;;;;;;;5079187;28;20440;-64
2023/03/25 06:40:41;;;;;;;5.67;2.47;;;;;;;;;;5076437;28;20495;-64
2023/03/25 06:43:08;;;;;;;6.80;2.97;;;;;;;;;;5078522;28;20531;-64
2023/03/25 06:45:34;;;;;;;5.33;2.30;;;;;;;;;;5078933;28;20479;-64
2023/03/25 06:48:01;;;;;;;4.00;2.30;;;;;;;;;;5079698;28;20480;-64
2023/03/25 06:50:27;;;;;;;6.07;2.33;;;;;;;;;;5078581;28;20471;-64
2023/03/25 06:52:55;;;;;;;4.80;2.60;;;;;;;;;;5079697;28;20480;-64
2023/03/25 06:55:21;;;;;;;3.07;2.00;;;;;;;;;;5078599;28;20452;-64
2023/03/25 06:57:48;;;;;;;5.23;2.37;;;;;;;;;;5079253;28;20455;-64
2023/03/25 07:00:19;;;;;;;5.40;2.60;;;;;;;;;;5078806;28;20499;-64
2023/03/25 07:02:52;;;;;;;5.80;2.07;;;;;;;;;;5060602;28;20487;-64
2023/03/25 07:05:18;;;;;;;7.67;3.30;;;;;;;;;;5062215;28;20993;-64
2023/03/25 07:07:48;;;;;;;3.20;2.10;;;;;;;;;;5063078;28;20476;-64
2023/03/25 07:10:15;;;;;;;5.07;2.27;;;;;;;;;;5072286;28;20509;-64
2023/03/25 07:12:42;;;;;;;5.00;2.23;;;;;;;;;;5062853;28;20481;-64
2023/03/25 07:15:08;;;;;;;6.03;2.93;;;;;;;;;;5059141;28;20453;-65
2023/03/25 07:17:35;;;;;;;5.70;2.10;;;;;;;;;;5067179;28;20471;-67
2023/03/25 07:20:01;;;;;;;9.43;2.43;;;;;;;;;;5064792;28;20507;-65
2023/03/25 07:22:28;;;;;;;7.03;2.27;;;;;;;;;;5061857;28;20509;-66
2023/03/25 07:24:54;;;;;;;3.47;2.00;;;;;;;;;;5064739;28;20464;-66
2023/03/25 07:27:22;;;;;;;5.73;2.33;;;;;;;;;;5061103;28;20496;-66
2023/03/25 07:29:48;;;;;;;3.33;1.67;;;;;;;;;;5061889;28;20496;-67
2023/03/25 07:32:15;;;;;;;4.27;1.80;;;;;;;;;;5063152;28;20528;-67
2023/03/25 07:34:41;;;;;;;5.43;2.30;;;;;;;;;;5062770;28;20889;-66
2023/03/25 07:37:08;;;;;;;4.43;2.27;;;;;;;;;;5061670;28;20477;-66
2023/03/25 07:39:34;;;;;;;3.03;2.10;;;;;;;;;;5062882;28;20460;-66
2023/03/25 07:42:01;;;;;;;5.40;2.10;;;;;;;;;;5064949;28;20577;-66
2023/03/25 07:44:28;;;;;;;5.30;2.53;;;;;;;;;;5062324;28;20502;-65
2023/03/25 07:46:55;;;;;;;4.50;2.50;;;;;;;;;;5058170;28;20500;-65
2023/03/25 07:49:21;;;;;;;6.57;4.10;;;;;;;;;;5064329;28;20539;-68
2023/03/25 07:51:48;;;;;;;2.47;2.27;;;;;;;;;;5061273;28;20485;-65
2023/03/25 07:54:14;;;;;;;8.70;2.77;;;;;;;;;;5061663;28;20532;-65
2023/03/25 07:56:41;;;;;;;5.17;2.50;;;;;;;;;;5060963;28;20492;-66
2023/03/25 07:59:08;;;;;;;3.67;2.23;;;;;;;;;;5068128;28;21095;-65
2023/03/25 08:01:36;;;;;;;4.00;2.63;;;;;;;;;;5069548;28;20518;-65
2023/03/25 08:04:02;;;;;;;7.90;2.37;;;;;;;;;;5081660;28;20455;-66
2023/03/25 08:06:29;;;;;;;6.53;2.87;;;;;;;;;;5078812;28;20484;-65
2023/03/25 08:08:55;;;;;;;10.53;2.87;;;;;;;;;;5081950;28;20499;-66
2023/03/25 08:11:22;;;;;;;4.70;2.33;;;;;;;;;;5080197;28;20494;-65
2023/03/25 08:13:48;;;;;;;6.17;2.60;;;;;;;;;;5080665;28;20486;-65
2023/03/25 08:16:15;;;;;;;4.33;2.60;;;;;;;;;;5079926;28;20542;-64
2023/03/25 08:18:43;;;;;;;10.33;2.63;;;;;;;;;;5081647;28;20698;-65
2023/03/25 08:21:10;;;;;;;7.73;2.53;;;;;;;;;;5080473;28;21048;-65
2023/03/25 08:23:37;;;;;;;6.20;2.60;;;;;;;;;;5081961;28;20483;-65
2023/03/25 08:26:04;;;;;;;4.53;2.80;;;;;;;;;;5079635;28;20491;-65
2023/03/25 08:28:31;;;;;;;4.10;2.47;;;;;;;;;;5080654;28;20480;-65
2023/03/25 08:31:01;;;;;;;5.07;2.47;;;;;;;;;;5080119;28;20502;-66
2023/03/25 08:33:32;;;;;;;4.87;2.90;;;;;;;;;;5081674;28;20445;-67
2023/03/25 08:36:01;;;;;;;6.93;2.93;;;;;;;;;;5079847;28;20484;-67
2023/03/25 08:38:30;;;;;;;4.53;2.73;;;;;;;;;;5077632;28;20523;-67
2023/03/25 08:40:58;;;;;;;5.80;2.70;;;;;;;;;;5075225;28;20993;-68
2023/03/25 08:43:24;;;;;;;3.67;2.50;;;;;;;;;;5077306;28;20479;-63
2023/03/25 08:45:51;;;;;;;9.30;3.10;;;;;;;;;;5080827;28;20510;-62
2023/03/25 08:48:21;;;;;;;7.73;3.60;;;;;;;;;;5084936;28;20522;-64
2023/03/25 08:50:47;;;;;;;5.60;3.30;;;;;;;;;;5080636;28;20468;-68
2023/03/25 08:53:15;;;;;;;6.33;3.93;;;;;;;;;;5081041;28;20472;-68
2023/03/25 08:55:42;;;;;;;6.07;3.30;;;;;;;;;;5080779;28;20468;-68
2023/03/25 08:58:08;;;;;;;11.67;3.87;;;;;;;;;;5080173;28;20464;-67
2023/03/25 09:00:36;;;;;;;8.57;3.17;;;;;;;;;;5074415;28;20498;-67
2023/03/25 09:03:03;;;;;;;5.50;3.27;;;;;;;;;;5079523;28;20492;-66
2023/03/25 09:05:29;;;;;;;13.07;3.70;;;;;;;;;;5079892;28;20463;-66
2023/03/25 09:07:56;;;;;;;6.50;3.70;;;;;;;;;;5079766;28;20568;-66
2023/03/25 09:10:24;;;;;;;7.83;3.93;;;;;;;;;;5079588;28;20539;-67
2023/03/25 09:12:50;;;;;;;6.53;4.07;;;;;;;;;;5079628;28;20453;-66
2023/03/25 09:15:17;;;;;;;6.30;3.57;;;;;;;;;;5080228;28;20455;-68
2023/03/25 09:17:43;;;;;;;7.67;4.70;;;;;;;;;;5079481;28;20460;-69
2023/03/25 09:20:10;;;;;;;8.70;4.50;;;;;;;;;;5079725;28;20452;-69
2023/03/25 09:22:36;;;;;;;7.60;4.13;;;;;;;;;;5080337;28;20484;-69
2023/03/25 09:25:03;;;;;;;6.63;4.10;;;;;;;;;;5080476;28;20480;-69
2023/03/25 09:27:31;;;;;;;9.13;4.67;;;;;;;;;;5078625;28;20515;-70
2023/03/25 09:29:58;;;;;;;9.60;4.10;;;;;;;;;;5077970;28;20502;-69
2023/03/25 09:32:24;;;;;;;7.00;4.03;;;;;;;;;;5079179;28;20567;-69
2023/03/25 09:34:51;;;;;;;12.77;4.00;;;;;;;;;;5080828;28;20452;-69
2023/03/25 09:37:18;;;;;;;7.47;3.93;;;;;;;;;;5079129;28;21024;-69
2023/03/25 09:39:44;;;;;;;5.77;3.90;;;;;;;;;;5080151;28;20452;-70
2023/03/25 09:42:22;;;;;;;5.23;2.97;;;;;;;;;;5077834;28;20492;-69
2023/03/25 09:44:55;;;;;;;6.30;2.80;;;;;;;;;;5078193;28;20517;-69
2023/03/25 09:47:21;;;;;;;7.33;2.97;;;;;;;;;;5078415;28;20476;-68
2023/03/25 09:49:52;;;;;;;8.73;3.20;;;;;;;;;;5079418;28;20476;-68
2023/03/25 09:52:20;;;;;;;6.63;2.93;;;;;;;;;;5077700;28;20506;-69
2023/03/25 09:54:48;;;;;;;9.23;3.73;;;;;;;;;;5079443;28;20768;-67
2023/03/25 09:57:18;;;;;;;5.60;3.20;;;;;;;;;;5069322;28;20518;-66
2023/03/25 09:59:48;;;;;;;10.83;3.90;;;;;;;;;;5076853;28;20460;-68
2023/03/25 10:02:23;;;;;;;8.63;3.17;;;;;;;;;;5066977;28;20978;-67
2023/03/25 10:04:59;;;;;;;10.03;3.03;;;;;;;;;;5059600;28;20480;-68
2023/03/25 10:07:37;;;;;;;9.90;2.73;;;;;;;;;;5060276;28;20530;-68
2023/03/25 10:10:06;;;;;;;7.67;2.63;;;;;;;;;;5056978;28;20846;-69
2023/03/25 10:12:37;;;;;;;5.23;3.33;;;;;;;;;;5058051;28;20473;-69
2023/03/25 10:15:12;;;;;;;7.27;2.63;;;;;;;;;;5058098;28;20493;-68
2023/03/25 10:17:44;;;;;;;11.83;3.63;;;;;;;;;;5058634;28;20452;-69
2023/03/25 10:20:16;;;;;;;5.37;3.60;;;;;;;;;;5057481;28;20460;-68
2023/03/25 10:22:51;;;;;;;9.10;3.80;;;;;;;;;;5055825;28;20542;-68
2023/03/25 10:25:20;;;;;;;9.57;3.63;;;;;;;;;;5058540;28;20477;-66
2023/03/25 10:27:49;;;;;;;8.13;3.60;;;;;;;;;;5058036;28;20500;-67
2023/03/25 10:30:18;;;;;;;10.40;4.40;;;;;;;;;;5057395;28;20485;-66
2023/03/25 10:32:48;;;;;;;11.40;4.07;;;;;;;;;;5057687;28;20537;-66
2023/03/25 10:35:16;;;;;;;7.50;3.30;;;;;;;;;;5050135;28;20968;-66
2023/03/25 10:37:43;;;;;;;7.20;4.13;;;;;;;;;;5059397;28;20540;-65
2023/03/25 10:40:15;;;;;;;11.97;3.90;;;;;;;;;;5065846;28;20448;-67
2023/03/25 10:42:44;;;;;;;9.37;4.43;;;;;;;;;;5058389;28;20468;-66
2023/03/25 10:45:12;;;;;;;10.10;4.00;;;;;;;;;;5061116;28;20484;-67
2023/03/25 10:47:40;;;;;;;9.50;4.00;;;;;;;;;;5064492;28;20476;-67
2023/03/25 10:50:14;;;;;;;5.00;3.73;;;;;;;;;;5060643;28;20441;-67
2023/03/25 10:52:40;;;;;;;8.50;3.97;;;;;;;;;;5062123;28;20823;-67
2023/03/25 10:55:15;;;;;;;10.80;4.23;;;;;;;;;;5061427;28;20536;-67
2023/03/25 10:57:41;;;;;;;6.70;3.97;;;;;;;;;;5062701;28;20458;-67
2023/03/25 11:00:11;;;;;;;6.77;4.37;;;;;;;;;;5063938;28;20488;-67
2023/03/25 11:02:38;;;;;;;6.27;4.50;;;;;;;;;;5078869;28;20511;-64
2023/03/25 11:05:07;;;;;;;7.13;3.97;;;;;;;;;;5081092;28;20459;-65
2023/03/25 11:07:36;;;;;;;6.87;3.53;;;;;;;;;;5078166;28;20467;-66
2023/03/25 11:10:11;;;;;;;8.60;4.80;;;;;;;;;;5081516;28;20547;-64
2023/03/25 11:12:38;;;;;;;10.80;4.20;;;;;;;;;;5081107;28;20546;-66
2023/03/25 11:15:05;;;;;;;9.00;3.40;;;;;;;;;;5081620;28;20459;-65
2023/03/25 11:17:32;;;;;;;6.40;3.10;;;;;;;;;;5082412;28;20468;-66
2023/03/25 11:20:00;;;;;;;9.57;3.73;;;;;;;;;;5082494;28;20463;-67
2023/03/25 11:22:28;;;;;;;7.17;3.57;;;;;;;;;;5080566;28;20559;-68
2023/03/25 11:25:00;;;;;;;5.73;3.40;;;;;;;;;;5081977;28;20452;-68
2023/03/25 11:27:27;;;;;;;5.00;3.33;;;;;;;;;;5081225;28;20484;-68
2023/03/25 11:29:55;;;;;;;7.73;4.60;;;;;;;;;;5081392;28;20487;-67
2023/03/25 11:32:23;;;;;;;9.67;5.67;;;;;;;;;;5080956;28;20617;-68
2023/03/25 11:34:50;;;;;;;9.57;4.50;;;;;;;;;;5081115;28;20502;-68
2023/03/25 11:37:17;;;;;;;6.00;5.30;;;;;;;;;;5080405;28;20572;-68
2023/03/25 11:39:48;;;;;;;6.20;4.90;;;;;;;;;;5075705;28;20520;-67
2023/03/25 11:42:23;;;;;;;14.43;6.13;;;;;;;;;;5080139;28;20507;-68
2023/03/25 11:44:50;;;;;;;12.37;5.07;;;;;;;;;;5078230;28;20467;-68
2023/03/25 11:47:21;;;;;;;5.97;3.80;;;;;;;;;;5081454;28;20515;-68
2023/03/25 11:49:48;;;;;;;9.30;3.70;;;;;;;;;;5080853;28;21319;-67
2023/03/25 11:52:17;;;;;;;5.97;3.20;;;;;;;;;;5079680;28;20516;-66
2023/03/25 11:54:44;;;;;;;8.00;3.17;;;;;;;;;;5081365;28;20489;-68
2023/03/25 11:57:12;;;;;;;8.87;4.27;;;;;;;;;;5081362;28;20476;-68
2023/03/25 11:59:43;;;;;;;7.63;3.00;;;;;;;;;;5079986;28;20523;-68
2023/03/25 12:02:17;;;;;;;8.43;3.57;;;;;;;;;;5077380;28;20520;-68
2023/03/25 12:04:54;;;;;;;6.03;3.50;;;;;;;;;;5078634;28;20484;-68
2023/03/25 12:07:23;;;;;;;6.33;3.20;;;;;;;;;;5080293;28;20546;-67
2023/03/25 12:09:54;;;;;;;7.30;3.40;;;;;;;;;;5081212;28;20831;-67
2023/03/25 12:12:27;;;;;;;7.17;3.20;;;;;;;;;;5080121;28;20491;-67
2023/03/25 12:15:01;;;;;;;7.87;4.23;;;;;;;;;;5073086;28;20470;-67
2023/03/25 12:17:31;;;;;;;3.77;2.50;;;;;;;;;;5079912;28;20472;-68
2023/03/25 12:20:01;;;;;;;5.53;2.60;;;;;;;;;;5075418;28;20532;-66
2023/03/25 12:22:35;;;;;;;7.17;2.90;;;;;;;;;;5077124;28;20583;-67
2023/03/25 12:25:04;;;;;;;4.50;2.40;;;;;;;;;;5080856;28;20451;-66
2023/03/25 12:27:37;;;;;;;3.87;2.53;;;;;;;;;;5070307;28;21083;-66
2023/03/25 12:30:08;;;;;;;9.70;3.23;;;;;;;;;;5080282;28;20518;-66
2023/03/25 12:32:36;;;;;;;8.97;3.30;;;;;;;;;;5076171;28;20470;-66
2023/03/25 12:35:09;;;;;;;6.27;2.97;;;;;;;;;;5080139;28;20589;-65
2023/03/25 12:37:41;;;;;;;7.90;3.60;;;;;;;;;;5080410;28;20464;-65
2023/03/25 12:40:23;;;;;;;4.30;3.43;;;;;;;;;;5079129;28;20495;-64
2023/03/25 12:42:56;;;;;;;8.13;3.80;;;;;;;;;;5078716;28;20487;-65
2023/03/25 12:45:34;;;;;;;11.13;3.90;;;;;;;;;;5080225;28;20460;-65
2023/03/25 12:48:06;;;;;;;4.93;2.50;;;;;;;;;;5080892;28;20871;-65
2023/03/25 12:50:37;;;;;;;6.83;2.80;;;;;;;;;;5074358;28;20494;-66
2023/03/25 12:53:08;;;;;;;5.37;2.80;;;;;;;;;;5080054;28;20455;-66
2023/03/25 12:55:48;;;;;;;4.77;2.73;;;;;;;;;;5080045;28;21009;-66
2023/03/25 12:58:24;;;;;;;3.93;2.60;;;;;;;;;;5078875;28;20484;-66
2023/03/25 13:00:56;;;;;;;5.33;2.70;;;;;;;;;;5079066;28;21070;-66
2023/03/25 13:03:35;;;;;;;7.70;3.13;;;;;;;;;;5080391;28;21838;-66
2023/03/25 13:06:06;;;;;;;3.47;2.60;;;;;;;;;;5078458;28;20511;-64
2023/03/25 13:08:35;;;;;;;7.10;3.10;;;;;;;;;;5080513;28;20484;-65
2023/03/25 13:11:05;;;;;;;8.70;3.50;;;;;;;;;;5079269;28;20504;-65
2023/03/25 13:13:33;;;;;;;8.20;3.20;;;;;;;;;;5078089;28;20975;-65
2023/03/25 13:16:05;;;;;;;3.87;2.60;;;;;;;;;;5078323;28;20504;-66
2023/03/25 13:18:33;;;;;;;4.13;2.73;;;;;;;;;;5078475;28;20476;-66
2023/03/25 13:21:01;;;;;;;5.70;3.00;;;;;;;;;;5079174;28;20467;-65
2023/03/25 13:23:29;;;;;;;5.07;2.37;;;;;;;;;;5079455;28;20892;-66
2023/03/25 13:25:57;;;;;;;6.73;2.83;;;;;;;;;;5079476;28;20880;-66
2023/03/25 13:28:26;;;;;;;6.60;2.40;;;;;;;;;;5078052;28;20849;-64
2023/03/25 13:30:54;;;;;;;4.17;1.87;;;;;;;;;;5078023;28;20527;-64
2023/03/25 13:33:24;;;;;;;3.73;2.10;;;;;;;;;;5078662;28;20456;-65
2023/03/25 13:35:52;;;;;;;7.43;2.50;;;;;;;;;;5076369;28;20488;-72
2023/03/25 13:38:21;;;;;;;4.13;2.00;;;;;;;;;;5091308;28;20877;-69
2023/03/25 13:40:51;;;;;;;5.63;2.00;;;;;;;;;;5078404;28;20770;-69
2023/03/25 13:43:23;;;;;;;4.40;2.10;;;;;;;;;;5077647;28;20483;-69
2023/03/25 13:45:51;;;;;;;6.20;2.00;;;;;;;;;;5078901;28;20525;-69
2023/03/25 13:48:22;;;;;;;5.80;2.37;;;;;;;;;;5079365;28;20510;-67
2023/03/25 13:50:50;;;;;;;8.07;1.80;;;;;;;;;;5078310;28;20476;-67
2023/03/25 13:53:20;;;;;;;6.13;1.73;;;;;;;;;;5078247;28;20452;-70
2023/03/25 13:55:51;;;;;;;11.77;2.37;;;;;;;;;;5077958;28;20480;-69
2023/03/25 13:58:38;;;;;;;4.40;1.77;;;;;;;;;;5077483;28;20514;-71
2023/03/25 14:01:39;;;;;;;7.10;1.90;;;;;;;;;;5073338;28;20485;-71
2023/03/25 14:04:30;;;;;;;6.07;1.80;;;;;;;;;;4997322;28;20470;-71
2023/03/25 14:07:10;;;;;;;7.23;2.03;;;;;;;;;;4978559;28;20476;-71
2023/03/25 14:09:55;;;;;;;5.73;2.30;;;;;;;;;;4994380;28;20494;-71
2023/03/25 14:12:23;;;;;;;4.27;2.00;;;;;;;;;;4991919;28;20959;-70
2023/03/25 14:14:53;;;;;;;7.13;2.20;;;;;;;;;;4990149;28;20515;-70
2023/03/25 14:17:21;;;;;;;5.23;2.40;;;;;;;;;;4995978;28;20488;-71
2023/03/25 14:19:51;;;;;;;3.33;2.23;;;;;;;;;;4998180;28;20451;-71
2023/03/25 14:22:21;;;;;;;4.10;3.03;;;;;;;;;;4996714;28;20484;-71
2023/03/25 14:24:52;;;;;;;4.07;2.27;;;;;;;;;;4995595;28;20551;-71
2023/03/25 14:27:23;;;;;;;5.73;3.13;;;;;;;;;;4997456;28;20550;-73
2023/03/25 14:29:55;;;;;;;5.40;2.57;;;;;;;;;;4991622;28;20503;-69
2023/03/25 14:32:30;;;;;;;8.87;2.63;;;;;;;;;;4999605;28;20484;-70
2023/03/25 14:35:17;;;;;;;6.87;2.83;;;;;;;;;;5021501;28;20484;-70
2023/03/25 14:37:45;;;;;;;3.87;2.57;;;;;;;;;;5062679;28;20528;-69
2023/03/25 14:40:35;;;;;;;8.73;3.20;;;;;;;;;;5063181;28;20480;-70
2023/03/25 14:43:01;;;;;;;7.97;3.53;;;;;;;;;;5035960;28;20555;-70
2023/03/25 14:45:52;;;;;;;5.13;3.17;;;;;;;;;;5062583;28;20468;-71
2023/03/25 14:48:25;;;;;;;6.33;4.17;;;;;;;;;;5062333;28;20572;-70
2023/03/25 14:51:08;;;;;;;3.57;2.80;;;;;;;;;;5061695;28;20520;-70
2023/03/25 14:53:36;;;;;;;4.37;2.80;;;;;;;;;;5063283;28;20483;-71
2023/03/25 14:56:06;;;;;;;4.80;2.90;;;;;;;;;;5061509;28;20544;-70